createdAt,value
2022-09-05T00:00:01.226Z,3.87
2022-09-05T00:03:05.809Z,3.65
2022-09-05T00:06:00.019Z,3.83
2022-09-05T00:08:51.016Z,3.41
2022-09-05T00:11:45.622Z,3.77
2022-09-05T00:14:36.740Z,3.83
2022-09-05T00:18:22.690Z,3.97
2022-09-05T00:24:26.686Z,3.70
2022-09-05T00:24:28.562Z,3.70
2022-09-05T00:26:54.447Z,3.73
2022-09-05T00:31:06.550Z,3.68
2022-09-05T00:33:17.317Z,3.79
2022-09-05T00:36:03.070Z,3.58
2022-09-05T00:38:36.608Z,3.80
2022-09-05T00:41:11.279Z,3.61
2022-09-05T00:43:46.571Z,3.56
2022-09-05T00:46:26.524Z,3.72
2022-09-05T00:49:10.879Z,3.85
2022-09-05T00:51:53.539Z,3.58
2022-09-05T00:54:40.380Z,3.78
2022-09-05T00:57:33.977Z,3.43
2022-09-05T01:00:22.365Z,3.93
2022-09-05T01:03:27.556Z,3.66
2022-09-05T01:06:03.903Z,3.88
2022-09-05T01:09:08.193Z,3.98
2022-09-05T01:11:43.865Z,3.70
2022-09-05T01:14:49.417Z,4.05
2022-09-05T01:17:33.919Z,3.76
2022-09-05T01:20:04.807Z,3.83
2022-09-05T01:22:48.115Z,4.06
2022-09-05T01:25:47.034Z,4.05
2022-09-05T01:29:18.364Z,3.94
2022-09-05T01:31:42.184Z,3.82
2022-09-05T01:34:11.438Z,4.01
2022-09-05T01:37:33.167Z,3.90
2022-09-05T01:40:18.720Z,3.72
2022-09-05T01:43:00.126Z,3.77
2022-09-05T01:45:47.612Z,3.60
2022-09-05T01:48:37.228Z,4.07
2022-09-05T01:51:28.782Z,4.22
2022-09-05T01:54:35.862Z,4.08
2022-09-05T01:57:19.633Z,4.08
2022-09-05T02:00:11.932Z,4.10
2022-09-05T02:03:00.301Z,4.07
2022-09-05T02:05:48.462Z,4.43
2022-09-05T02:08:16.104Z,4.73
2022-09-05T02:11:07.996Z,4.54
2022-09-05T02:13:34.449Z,5.08
2022-09-05T02:16:28.164Z,4.66
2022-09-05T02:19:06.202Z,4.80
2022-09-05T02:21:36.733Z,4.55
2022-09-05T02:24:33.220Z,4.74
2022-09-05T02:28:03.829Z,4.99
2022-09-05T02:30:29.772Z,4.74
2022-09-05T02:33:14.052Z,4.49
2022-09-05T02:35:55.163Z,4.62
2022-09-05T02:41:45.647Z,4.57
2022-09-05T02:45:19.430Z,4.56
2022-09-05T02:45:25.849Z,4.72
2022-09-05T02:48:16.318Z,4.59
2022-09-05T02:57:25.129Z,4.47
2022-09-05T02:57:27.443Z,4.26
2022-09-05T02:58:05.673Z,4.06
2022-09-05T03:00:23.794Z,4.53
2022-09-05T03:03:12.278Z,4.24
2022-09-05T03:05:55.541Z,4.32
2022-09-05T03:08:40.833Z,4.15
2022-09-05T03:11:40.951Z,4.18
2022-09-05T03:14:28.587Z,4.09
2022-09-05T03:17:42.361Z,4.17
2022-09-05T03:20:26.599Z,4.14
2022-09-05T03:22:55.785Z,4.47
2022-09-05T03:25:55.554Z,4.23
2022-09-05T03:29:27.860Z,4.35
2022-09-05T03:32:31.778Z,4.30
2022-09-05T03:35:08.883Z,4.19
2022-09-05T03:38:08.931Z,4.15
2022-09-05T03:41:01.709Z,4.26
2022-09-05T03:44:15.079Z,4.13
2022-09-05T03:47:00.015Z,4.16
2022-09-05T03:52:53.445Z,4.31
2022-09-05T03:57:11.565Z,4.04
2022-09-05T03:57:14.289Z,4.23
2022-09-05T03:59:52.475Z,4.48
2022-09-05T04:07:31.022Z,4.23
2022-09-05T04:08:18.450Z,4.39
2022-09-05T04:08:32.099Z,4.16
2022-09-05T04:11:16.243Z,4.47
2022-09-05T04:13:55.375Z,4.13
2022-09-05T04:16:31.649Z,4.30
2022-09-05T04:19:15.280Z,4.46
2022-09-05T04:22:10.979Z,4.73
2022-09-05T04:25:03.813Z,4.72
2022-09-05T04:27:48.345Z,4.12
2022-09-05T04:30:38.231Z,4.40
2022-09-05T04:33:42.192Z,4.57
2022-09-05T04:36:33.530Z,4.71
2022-09-05T04:39:18.302Z,5.00
2022-09-05T04:41:52.661Z,4.62
2022-09-05T04:44:33.779Z,4.72
2022-09-05T04:47:14.848Z,4.59
2022-09-05T04:49:50.744Z,4.70
2022-09-05T04:53:03.730Z,4.66
2022-09-05T04:55:50.725Z,4.53
2022-09-05T05:00:02.542Z,4.27
2022-09-05T05:06:01.211Z,4.44
2022-09-05T05:06:15.110Z,4.31
2022-09-05T05:07:38.665Z,4.21
2022-09-05T05:14:21.647Z,4.16
2022-09-05T05:18:02.173Z,4.20
2022-09-05T05:18:15.638Z,4.31
2022-09-05T05:19:27.498Z,4.75
2022-09-05T05:21:58.771Z,4.52
2022-09-05T05:24:35.002Z,4.08
2022-09-05T05:27:28.230Z,4.52
2022-09-05T05:30:07.443Z,4.52
2022-09-05T05:32:45.475Z,4.40
2022-09-05T05:35:22.816Z,4.31
2022-09-05T05:38:12.184Z,4.51
2022-09-05T05:40:51.300Z,4.89
2022-09-05T05:43:29.867Z,4.94
2022-09-05T05:46:00.589Z,4.60
2022-09-05T05:48:38.096Z,5.05
2022-09-05T05:51:59.083Z,4.88
2022-09-05T05:54:47.636Z,4.96
2022-09-05T05:57:31.807Z,5.00
2022-09-05T06:00:08.201Z,4.85
2022-09-05T06:03:24.621Z,4.81
2022-09-05T06:05:58.318Z,5.09
2022-09-05T06:13:54.380Z,4.66
2022-09-05T06:14:57.481Z,4.77
2022-09-05T06:15:10.205Z,4.91
2022-09-05T06:18:07.343Z,4.73
2022-09-05T06:22:06.100Z,4.85
2022-09-05T06:23:40.376Z,4.68
2022-09-05T06:26:15.923Z,4.85
2022-09-05T06:28:57.328Z,4.89
2022-09-05T06:31:31.322Z,4.92
2022-09-05T06:34:35.073Z,4.79
2022-09-05T06:37:16.775Z,5.02
2022-09-05T06:40:08.445Z,4.99
2022-09-05T06:43:02.624Z,4.98
2022-09-05T06:45:58.547Z,5.62
2022-09-05T06:49:30.886Z,4.85
2022-09-05T06:51:46.642Z,4.78
2022-09-05T06:54:37.834Z,4.35
2022-09-05T06:57:17.031Z,4.57
2022-09-05T06:59:59.492Z,4.57
2022-09-05T07:03:02.951Z,4.40
2022-09-05T07:05:55.714Z,4.54
2022-09-05T07:08:35.713Z,5.19
2022-09-05T07:11:21.448Z,4.88
2022-09-05T07:14:06.149Z,4.82
2022-09-05T07:16:39.036Z,4.97
2022-09-05T07:19:19.179Z,4.76
2022-09-05T07:22:39.290Z,4.68
2022-09-05T07:25:09.825Z,7.16
2022-09-05T07:27:44.437Z,6.01
2022-09-05T07:30:23.176Z,5.49
2022-09-05T07:32:55.303Z,5.46
2022-09-05T07:35:41.445Z,5.77
2022-09-05T07:38:14.786Z,5.32
2022-09-05T07:40:52.874Z,4.64
2022-09-05T07:43:33.785Z,4.79
2022-09-05T07:46:00.236Z,4.79
2022-09-05T07:48:38.288Z,4.62
2022-09-05T07:56:25.511Z,4.56
2022-09-05T07:57:04.794Z,4.24
2022-09-05T07:57:30.114Z,4.80
2022-09-05T08:00:25.915Z,4.39
2022-09-05T08:02:59.202Z,4.92
2022-09-05T08:05:35.859Z,4.86
2022-09-05T08:08:10.480Z,5.13
2022-09-05T08:11:22.071Z,5.14
2022-09-05T08:14:11.780Z,4.58
2022-09-05T08:16:43.266Z,4.62
2022-09-05T08:19:57.845Z,4.99
2022-09-05T08:22:52.196Z,5.08
2022-09-05T08:25:36.369Z,4.72
2022-09-05T08:28:39.218Z,4.76
2022-09-05T08:31:20.748Z,4.58
2022-09-05T08:33:55.628Z,4.65
2022-09-05T08:36:34.710Z,5.07
2022-09-05T08:39:04.310Z,5.14
2022-09-05T08:41:49.353Z,4.92
2022-09-05T08:46:39.917Z,4.76
2022-09-05T08:47:45.996Z,4.94
2022-09-05T08:50:37.956Z,5.07
2022-09-05T08:53:46.239Z,5.01
2022-09-05T08:56:20.724Z,4.92
2022-09-05T08:59:32.242Z,5.48
2022-09-05T09:02:47.208Z,5.22
2022-09-05T09:05:21.048Z,5.10
2022-09-05T09:07:58.829Z,5.35
2022-09-05T09:10:28.291Z,5.22
2022-09-05T09:13:23.744Z,5.39
2022-09-05T09:16:00.270Z,5.47
2022-09-05T09:18:58.999Z,5.25
2022-09-05T09:21:56.587Z,5.30
2022-09-05T09:24:35.771Z,5.24
2022-09-05T09:27:12.484Z,4.91
2022-09-05T09:29:43.254Z,5.03
2022-09-05T09:32:20.732Z,4.87
2022-09-05T09:35:11.900Z,5.24
2022-09-05T09:38:08.921Z,5.55
2022-09-05T09:41:03.404Z,5.45
2022-09-05T09:44:05.994Z,5.01
2022-09-05T09:46:42.665Z,4.70
2022-09-05T09:49:27.183Z,4.91
2022-09-05T09:52:20.898Z,5.09
2022-09-05T09:55:25.206Z,4.90
2022-09-05T09:58:13.538Z,5.17
2022-09-05T10:01:35.380Z,4.94
2022-09-05T10:10:36.084Z,5.33
2022-09-05T10:10:43.934Z,5.10
2022-09-05T10:10:53.742Z,5.24
2022-09-05T10:13:27.269Z,5.32
2022-09-05T10:16:12.779Z,5.58
2022-09-05T10:18:56.054Z,5.90
2022-09-05T10:21:28.501Z,5.87
2022-09-05T10:24:16.459Z,5.65
2022-09-05T10:27:11.166Z,5.09
2022-09-05T10:29:45.672Z,5.24
2022-09-05T10:35:05.160Z,5.67
2022-09-05T10:35:31.906Z,5.73
2022-09-05T10:38:24.786Z,5.87
2022-09-05T10:41:20.742Z,5.71
2022-09-05T10:44:01.830Z,5.46
2022-09-05T10:46:51.515Z,5.40
2022-09-05T10:49:34.615Z,4.99
2022-09-05T10:52:18.780Z,5.28
2022-09-05T10:55:15.158Z,5.57
2022-09-05T10:58:30.435Z,5.84
2022-09-05T11:02:26.441Z,5.82
2022-09-05T11:04:49.679Z,5.42
2022-09-05T11:07:32.442Z,5.70
2022-09-05T11:10:21.575Z,5.41
2022-09-05T11:13:07.884Z,5.36
2022-09-05T11:16:03.986Z,5.47
2022-09-05T11:18:57.082Z,5.62
2022-09-05T11:21:34.821Z,5.42
2022-09-05T11:24:12.937Z,5.76
2022-09-05T11:27:24.256Z,5.38
2022-09-05T11:29:53.437Z,6.09
2022-09-05T11:39:48.350Z,6.77
2022-09-05T11:39:51.368Z,5.47
2022-09-05T11:39:59.340Z,5.58
2022-09-05T11:42:49.515Z,5.45
2022-09-05T11:46:00.163Z,5.59
2022-09-05T11:49:03.950Z,6.04
2022-09-05T11:51:45.330Z,5.47
2022-09-05T11:54:42.742Z,5.40
2022-09-05T11:57:33.346Z,5.47
2022-09-05T12:00:31.155Z,5.73
2022-09-05T12:03:59.774Z,5.67
2022-09-05T12:06:47.905Z,5.76
2022-09-05T12:09:40.014Z,5.89
2022-09-05T12:12:39.269Z,5.83
2022-09-05T12:15:24.225Z,5.72
2022-09-05T12:18:18.949Z,5.69
2022-09-05T12:20:50.984Z,6.96
2022-09-05T12:23:55.245Z,6.42
2022-09-05T12:27:42.035Z,5.95
2022-09-05T12:29:45.562Z,5.72
2022-09-05T12:33:40.758Z,5.84
2022-09-05T12:36:10.696Z,6.09
2022-09-05T12:40:56.188Z,5.28
2022-09-05T12:41:43.039Z,5.76
2022-09-05T12:44:42.386Z,5.33
2022-09-05T12:46:54.097Z,5.16
2022-09-05T12:49:51.955Z,4.42
2022-09-05T12:52:50.551Z,3.67
2022-09-05T12:55:20.668Z,4.38
2022-09-05T13:02:57.165Z,4.67
2022-09-05T13:03:07.542Z,3.41
2022-09-05T13:03:59.042Z,3.04
2022-09-05T13:06:46.850Z,3.24
2022-09-05T13:09:13.272Z,3.38
2022-09-05T13:14:57.073Z,3.58
2022-09-05T13:15:07.500Z,3.06
2022-09-05T13:17:44.437Z,3.02
2022-09-05T13:20:29.136Z,2.81
2022-09-05T13:22:56.228Z,3.18
2022-09-05T13:25:28.604Z,3.31
2022-09-05T13:28:03.230Z,3.22
2022-09-05T13:33:34.789Z,3.21
2022-09-05T13:38:11.970Z,3.18
2022-09-05T13:38:12.572Z,3.35
2022-09-05T13:39:21.986Z,2.85
2022-09-05T13:41:54.620Z,3.04
2022-09-05T13:44:27.165Z,3.29
2022-09-05T13:46:59.390Z,3.19
2022-09-05T13:49:34.690Z,3.06
2022-09-05T13:52:26.244Z,3.07
2022-09-05T13:55:16.640Z,3.11
2022-09-05T13:57:51.444Z,3.44
2022-09-05T14:01:01.372Z,3.18
2022-09-05T14:03:46.252Z,2.86
2022-09-05T14:06:47.183Z,2.77
2022-09-05T14:09:42.700Z,2.98
2022-09-05T14:12:24.923Z,3.04
2022-09-05T14:15:11.471Z,3.21
2022-09-05T14:18:21.438Z,2.98
2022-09-05T14:21:10.389Z,2.87
2022-09-05T14:23:53.436Z,2.95
2022-09-05T14:26:30.327Z,2.91
2022-09-05T14:29:20.334Z,2.83
2022-09-05T14:37:41.385Z,2.91
2022-09-05T14:38:01.084Z,3.37
2022-09-05T14:38:11.621Z,3.18
2022-09-05T14:41:00.327Z,3.13
2022-09-05T14:44:03.239Z,2.88
2022-09-05T14:46:58.889Z,2.89
2022-09-05T14:49:53.221Z,2.88
2022-09-05T14:52:29.699Z,2.89
2022-09-05T15:02:54.897Z,2.58
2022-09-05T15:02:58.668Z,2.65
2022-09-05T15:06:31.546Z,2.71
2022-09-05T15:12:18.559Z,2.84
2022-09-05T15:12:26.146Z,2.65
2022-09-05T15:14:36.932Z,2.71
2022-09-05T15:17:05.865Z,3.21
2022-09-05T15:20:05.520Z,2.91
2022-09-05T15:22:37.360Z,2.84
2022-09-05T15:25:21.504Z,2.71
2022-09-05T15:27:49.136Z,2.70
2022-09-05T15:30:35.279Z,2.77
2022-09-05T15:33:25.146Z,3.01
2022-09-05T15:35:53.051Z,2.96
2022-09-05T15:38:48.973Z,2.92
2022-09-05T15:41:27.746Z,2.94
2022-09-05T15:44:11.753Z,2.85
2022-09-05T15:46:56.824Z,2.57
2022-09-05T15:49:28.246Z,2.62
2022-09-05T15:51:59.785Z,2.66
2022-09-05T15:54:37.645Z,2.81
2022-09-05T15:57:17.581Z,2.76
2022-09-05T15:59:48.537Z,3.40
2022-09-05T16:02:21.085Z,3.03
2022-09-05T16:10:27.143Z,3.33
2022-09-05T16:10:39.697Z,2.79
2022-09-05T16:14:29.209Z,2.99
2022-09-05T16:23:14.593Z,2.91
2022-09-05T16:23:16.668Z,3.03
2022-09-05T16:23:28.090Z,3.08
2022-09-05T16:25:57.435Z,3.40
2022-09-05T16:28:36.330Z,3.25
2022-09-05T16:31:13.082Z,3.03
2022-09-05T16:33:42.584Z,3.65
2022-09-05T16:36:16.269Z,3.16
2022-09-05T16:38:49.616Z,2.95
2022-09-05T16:41:49.996Z,3.42
2022-09-05T16:44:47.688Z,3.51
2022-09-05T16:47:25.103Z,4.41
2022-09-05T16:50:16.966Z,4.28
2022-09-05T16:52:53.295Z,5.39
2022-09-05T16:55:29.694Z,4.04
2022-09-05T16:58:06.501Z,3.19
2022-09-05T17:00:54.990Z,3.78
2022-09-05T17:03:34.491Z,3.55
2022-09-05T17:06:25.870Z,5.03
2022-09-05T17:08:55.485Z,3.92
2022-09-05T17:12:00.342Z,4.00
2022-09-05T17:14:44.486Z,4.24
2022-09-05T17:27:09.121Z,3.81
2022-09-05T17:31:56.357Z,3.88
2022-09-05T17:34:39.214Z,4.80
2022-09-05T17:37:22.088Z,4.72
2022-09-05T17:39:58.008Z,6.11
2022-09-05T17:42:49.571Z,5.90
2022-09-05T17:45:24.921Z,4.38
2022-09-05T17:47:54.421Z,4.09
2022-09-05T17:50:48.346Z,5.38
2022-09-05T17:53:26.886Z,5.93
2022-09-05T17:55:53.995Z,4.76
2022-09-05T17:58:49.614Z,4.82
2022-09-05T18:01:21.708Z,4.81
2022-09-05T18:03:53.209Z,4.62
2022-09-05T18:06:19.957Z,4.72
2022-09-05T18:08:46.561Z,4.53
2022-09-05T18:11:25.606Z,4.50
2022-09-05T18:14:02.138Z,4.81
2022-09-05T18:22:44.092Z,5.54
2022-09-05T18:25:33.242Z,5.29
2022-09-05T18:28:33.577Z,5.10
2022-09-05T18:31:40.698Z,5.18
2022-09-05T18:34:19.833Z,6.27
2022-09-05T18:36:53.016Z,6.28
2022-09-05T18:39:43.526Z,5.37
2022-09-05T18:42:33.108Z,5.21
2022-09-05T18:45:16.666Z,5.76
2022-09-05T18:47:58.878Z,5.25
2022-09-05T18:50:34.026Z,5.51
2022-09-05T18:53:10.004Z,5.58
2022-09-05T18:56:20.536Z,5.32
2022-09-05T18:58:59.475Z,4.75
2022-09-05T19:02:00.600Z,4.55
2022-09-05T19:04:47.732Z,4.53
2022-09-05T19:07:24.872Z,4.99
2022-09-05T19:13:40.996Z,4.89
2022-09-05T19:16:21.237Z,4.80
2022-09-05T19:19:16.885Z,5.13
2022-09-05T19:22:37.343Z,4.93
2022-09-05T19:24:48.216Z,4.99
2022-09-05T19:30:08.625Z,5.53
2022-09-05T19:36:50.910Z,4.90
2022-09-05T19:36:54.136Z,4.82
2022-09-05T19:37:03.783Z,5.13
2022-09-05T19:38:44.158Z,4.78
2022-09-05T19:44:29.566Z,4.51
2022-09-05T19:47:25.669Z,4.99
2022-09-05T19:47:56.106Z,4.87
2022-09-05T19:50:20.460Z,4.50
2022-09-05T19:53:02.597Z,4.60
2022-09-05T19:55:35.120Z,4.61
2022-09-05T19:58:19.523Z,4.36
2022-09-05T20:01:01.583Z,4.63
2022-09-05T20:03:39.314Z,4.85
2022-09-05T20:06:29.579Z,4.67
2022-09-05T20:09:15.415Z,4.40
2022-09-05T20:11:55.231Z,4.51
2022-09-05T20:14:30.843Z,4.65
2022-09-05T20:17:21.751Z,4.54
2022-09-05T20:19:49.547Z,4.18
2022-09-05T20:22:49.136Z,4.72
2022-09-05T20:25:34.702Z,4.66
2022-09-05T20:28:11.216Z,4.96
2022-09-05T20:30:43.505Z,4.97
2022-09-05T20:33:32.259Z,5.16
2022-09-05T20:41:15.557Z,4.79
2022-09-05T20:43:15.705Z,5.01
2022-09-05T20:43:16.381Z,4.98
2022-09-05T20:44:37.897Z,4.53
2022-09-05T20:50:12.977Z,4.43
2022-09-05T20:54:14.765Z,4.66
2022-09-05T20:54:28.314Z,4.68
2022-09-05T20:55:47.388Z,4.40
2022-09-05T20:58:20.567Z,4.66
2022-09-05T21:01:20.518Z,4.52
2022-09-05T21:03:52.877Z,4.37
2022-09-05T21:06:27.585Z,4.60
2022-09-05T21:08:54.319Z,4.55
2022-09-05T21:11:32.537Z,4.18
2022-09-05T21:14:04.365Z,4.53
2022-09-05T21:16:37.356Z,4.15
2022-09-05T21:19:04.419Z,4.08
2022-09-05T21:21:34.205Z,4.18
2022-09-05T21:24:16.821Z,4.20
2022-09-05T21:26:49.913Z,4.36
2022-09-05T21:29:27.510Z,4.12
2022-09-05T21:32:02.071Z,3.85
2022-09-05T21:34:45.150Z,4.18
2022-09-05T21:37:15.415Z,4.21
2022-09-05T21:39:59.822Z,4.21
2022-09-05T21:47:29.450Z,4.22
2022-09-05T21:47:42.891Z,4.38
2022-09-05T21:48:05.034Z,4.74
2022-09-05T21:50:50.499Z,4.43
2022-09-05T21:55:59.527Z,4.49
2022-09-05T21:59:17.168Z,4.55
2022-09-05T21:59:41.617Z,4.52
2022-09-05T22:02:04.375Z,4.31
2022-09-05T22:04:31.156Z,5.15
2022-09-05T22:07:03.114Z,5.44
2022-09-05T22:09:29.617Z,5.06
2022-09-05T22:11:56.150Z,4.64
2022-09-05T22:14:24.838Z,4.68
2022-09-05T22:16:58.062Z,4.21
2022-09-05T22:19:27.044Z,4.15
2022-09-05T22:22:11.493Z,4.06
2022-09-05T22:24:37.994Z,3.91
2022-09-05T22:27:12.691Z,4.51
2022-09-05T22:29:40.435Z,3.99
2022-09-05T22:32:07.716Z,3.89
2022-09-05T22:34:34.267Z,4.47
2022-09-05T22:37:00.944Z,4.43
2022-09-05T22:39:37.097Z,4.33
2022-09-05T22:42:10.238Z,4.38
2022-09-05T22:44:39.350Z,3.96
2022-09-05T22:47:08.756Z,4.17
2022-09-05T22:49:35.834Z,4.95
2022-09-05T22:52:04.441Z,4.49
2022-09-05T22:54:30.932Z,4.50
2022-09-05T22:56:57.419Z,4.60
2022-09-05T22:59:23.908Z,4.35
2022-09-05T23:01:51.319Z,4.50
2022-09-05T23:04:17.993Z,4.18
2022-09-05T23:06:44.503Z,4.66
2022-09-05T23:09:11.288Z,4.29
2022-09-05T23:11:37.864Z,4.41
2022-09-05T23:14:04.379Z,4.24
2022-09-05T23:16:30.870Z,4.41
2022-09-05T23:18:57.391Z,4.16
2022-09-05T23:21:23.881Z,4.19
2022-09-05T23:23:50.433Z,4.54
2022-09-05T23:26:17.033Z,4.38
2022-09-05T23:28:44.012Z,4.07
2022-09-05T23:31:12.015Z,3.89
2022-09-05T23:33:40.453Z,4.75
2022-09-05T23:36:09.862Z,4.52
2022-09-05T23:38:36.650Z,4.55
2022-09-05T23:41:09.840Z,4.16
2022-09-05T23:43:36.491Z,4.29
2022-09-05T23:46:04.252Z,4.32
2022-09-05T23:48:31.025Z,4.56
2022-09-05T23:51:03.527Z,4.35
2022-09-05T23:53:30.009Z,4.42
2022-09-05T23:56:03.848Z,4.28
2022-09-05T23:58:30.896Z,4.58
